Rumney, New Hampshire
Current Conditions -  °F | °C
As of 7:55 PM on Wednesday 22 Oct 2014 (Local Time) from K1P1 Reporting Station
Overcast Overcast  
Wind Chill: 49°   Ceiling: 3100
Heat Index: 49°   Visibility: 10mi
Dew Point: 49°   Wind: 0mph
Humidity: 99%   Direction: NA
Pressure: 30.02"   Gusts: NA
Location:  43.81°N, 71.81°W
Report Text: K1P1 222355Z AUTO 00000KT 10SM OVC031 10/10 A3002 RMK AO2 LTG DSNT SE P0008 60008 T00960095 10130 20095
Loading
Personal Weather Stations






























Interactive Weather Map
Tropical Storm Tracking
New forecast layout! Learn more

10-Day Weather Forecast

Advertisements
Track Severe Weather on mobile